Time;durP1;ratioP1;P1;durP2;ratioP2;P2;SDS_P1;SDS_P2;PMS_P1;PMS_P2;Temp;Humidity;BMP_temperature;BMP_pressure;BME280_temperature;BME280_humidity;BME280_pressure;Samples;Min_cycle;Max_cycle;Signal;HPM_P1;HPM_P2
2022/11/25 00:01:24;;;;;;;;;;;1.00;99.90;;;;;;5039225;28;20002;-81
2022/11/25 00:03:50;;;;;;;;;;;0.90;99.90;;;;;;5038229;28;19913;-81
2022/11/25 00:06:20;;;;;;;;;;;0.90;99.90;;;;;;5039716;28;19956;-82
2022/11/25 00:08:47;;;;;;;;;;;0.90;99.90;;;;;;5038639;28;19925;-81
2022/11/25 00:11:13;;;;;;;;;;;0.90;99.90;;;;;;5037769;28;19921;-80
2022/11/25 00:13:39;;;;;;;;;;;0.90;99.90;;;;;;5038014;28;19919;-81
2022/11/25 00:16:06;;;;;;;;;;;0.80;99.90;;;;;;5037683;28;19925;-82
2022/11/25 00:18:32;;;;;;;;;;;0.80;99.90;;;;;;5037517;28;19909;-82
2022/11/25 00:20:58;;;;;;;;;;;0.80;99.90;;;;;;5037169;28;20361;-82
2022/11/25 00:23:24;;;;;;;;;;;0.80;99.90;;;;;;5038024;28;19989;-81
2022/11/25 00:25:49;;;;;;;;;;;0.80;99.90;;;;;;5036760;28;19919;-82
2022/11/25 00:28:17;;;;;;;;;;;0.90;99.90;;;;;;5036858;28;19921;-82
2022/11/25 00:30:42;;;;;;;;;;;0.90;99.90;;;;;;5038408;28;20285;-81
2022/11/25 00:33:08;;;;;;;;;;;1.00;99.90;;;;;;5035455;28;19913;-81
2022/11/25 00:35:34;;;;;;;;;;;1.00;99.90;;;;;;5018508;28;19925;-80
2022/11/25 00:38:00;;;;;;;;;;;1.00;99.90;;;;;;5034427;28;19913;-80
2022/11/25 00:40:25;;;;;;;;;;;1.00;99.90;;;;;;5034929;28;19913;-81
2022/11/25 00:45:35;;;;;;;;;;;1.00;99.90;;;;;;5036657;28;19929;-81
2022/11/25 00:48:01;;;;;;;;;;;1.00;99.90;;;;;;5035143;28;19917;-80
2022/11/25 00:50:26;;;;;;;;;;;1.10;99.90;;;;;;5027952;28;19925;-80
2022/11/25 00:52:52;;;;;;;;;;;1.10;99.90;;;;;;5035244;28;19932;-81
2022/11/25 00:55:17;;;;;;;;;;;1.10;99.90;;;;;;5036576;28;19909;-81
2022/11/25 00:57:43;;;;;;;;;;;1.10;99.90;;;;;;5035058;28;19971;-81
2022/11/25 01:00:10;;;;;;;;;;;1.10;99.90;;;;;;5034919;28;19932;-80
2022/11/25 01:02:35;;;;;;;;;;;1.10;99.90;;;;;;5031801;28;19910;-81
2022/11/25 01:05:01;;;;;;;;;;;1.10;99.90;;;;;;5016669;28;19914;-81
2022/11/25 01:07:27;;;;;;;;;;;1.10;99.90;;;;;;5016727;28;19990;-81
2022/11/25 01:09:52;;;;;;;;;;;1.10;99.90;;;;;;5019289;28;20012;-82
2022/11/25 01:12:18;;;;;;;;;;;1.10;99.90;;;;;;5035282;28;19943;-81
2022/11/25 01:14:43;;;;;;;;;;;1.10;99.90;;;;;;5051533;28;19920;-80
2022/11/25 01:17:09;;;;;;;;;;;1.10;99.90;;;;;;5035540;28;19916;-81
2022/11/25 01:19:38;;;;;;;;;;;1.10;99.90;;;;;;5018143;28;19917;-81
2022/11/25 01:22:05;;;;;;;;;;;1.10;99.90;;;;;;5034828;28;19914;-80
2022/11/25 01:24:30;;;;;;;;;;;1.10;99.90;;;;;;5035788;28;19910;-81
2022/11/25 01:26:56;;;;;;;;;;;1.10;99.90;;;;;;5017995;28;19964;-81
2022/11/25 01:29:21;;;;;;;;;;;1.10;99.90;;;;;;5036593;28;19924;-80
2022/11/25 01:31:47;;;;;;;;;;;1.10;99.90;;;;;;5036130;28;20027;-81
2022/11/25 01:34:14;;;;;;;;;;;1.10;99.90;;;;;;5038983;28;19940;-81
2022/11/25 01:36:40;;;;;;;;;;;1.10;99.90;;;;;;5041401;28;19909;-80
2022/11/25 01:39:06;;;;;;;;;;;1.10;99.90;;;;;;5038919;28;19909;-82
2022/11/25 01:41:32;;;;;;;;;;;1.10;99.90;;;;;;5039378;28;19917;-82
2022/11/25 01:44:17;;;;;;;;;;;1.10;99.90;;;;;;5049323;28;19917;-80
2022/11/25 01:47:02;;;;;;;;;;;1.00;99.90;;;;;;5026808;28;19917;-81
2022/11/25 01:49:39;;;;;;;;;;;0.90;99.90;;;;;;5041918;28;20377;-82
2022/11/25 01:52:12;;;;;;;;;;;0.80;99.90;;;;;;5040036;28;20277;-82
2022/11/25 01:54:41;;;;;;;;;;;0.80;99.90;;;;;;5041337;28;19936;-82
2022/11/25 01:57:09;;;;;;;;;;;0.80;99.90;;;;;;5039952;28;19995;-81
2022/11/25 01:59:36;;;;;;;;;;;0.80;99.90;;;;;;5040569;28;20331;-81
2022/11/25 02:02:02;;;;;;;;;;;0.80;99.90;;;;;;5040990;28;20011;-81
2022/11/25 02:04:31;;;;;;;;;;;0.80;99.90;;;;;;5023611;28;19918;-81
2022/11/25 02:06:59;;;;;;;;;;;0.90;99.90;;;;;;5038861;28;19948;-81
2022/11/25 02:09:26;;;;;;;;;;;0.90;99.90;;;;;;5039842;28;19920;-81
2022/11/25 02:11:51;;;;;;;;;;;0.90;99.90;;;;;;5037571;28;20353;-82
2022/11/25 02:14:19;;;;;;;;;;;0.90;99.90;;;;;;5039293;28;19924;-81
2022/11/25 02:16:44;;;;;;;;;;;0.90;99.90;;;;;;5040104;28;19920;-80
2022/11/25 02:19:16;;;;;;;;;;;0.90;99.90;;;;;;5038386;28;19913;-81
2022/11/25 02:21:45;;;;;;;;;;;0.90;99.90;;;;;;5040760;28;19916;-81
2022/11/25 02:24:15;;;;;;;;;;;0.90;99.90;;;;;;5039019;28;19975;-81
2022/11/25 02:26:40;;;;;;;;;;;0.90;99.90;;;;;;5039634;28;19952;-81
2022/11/25 02:29:06;;;;;;;;;;;0.80;99.90;;;;;;5038859;28;19913;-82
2022/11/25 02:31:32;;;;;;;;;;;0.80;99.90;;;;;;5039675;28;20404;-82
2022/11/25 02:33:57;;;;;;;;;;;0.80;99.90;;;;;;5021795;28;20277;-82
2022/11/25 02:36:23;;;;;;;;;;;0.80;99.90;;;;;;5040206;28;19921;-81
2022/11/25 02:38:48;;;;;;;;;;;0.80;99.90;;;;;;5038508;28;19916;-82
2022/11/25 02:41:18;;;;;;;;;;;0.80;99.90;;;;;;5039438;28;19913;-81
2022/11/25 02:43:44;;;;;;;;;;;0.80;99.90;;;;;;5034085;28;20059;-82
2022/11/25 02:46:11;;;;;;;;;;;0.80;99.90;;;;;;5019625;28;19960;-81
2022/11/25 02:48:38;;;;;;;;;;;0.80;99.90;;;;;;5029072;28;20011;-81
2022/11/25 02:51:04;;;;;;;;;;;0.80;99.90;;;;;;5039562;28;19917;-82
2022/11/25 02:53:29;;;;;;;;;;;0.80;99.90;;;;;;5038035;28;19910;-81
2022/11/25 02:55:55;;;;;;;;;;;0.80;99.90;;;;;;5037960;28;19935;-81
2022/11/25 02:58:22;;;;;;;;;;;0.80;99.90;;;;;;5037691;28;20371;-82
2022/11/25 03:00:48;;;;;;;;;;;0.80;99.90;;;;;;5038028;28;20336;-82
2022/11/25 03:03:14;;;;;;;;;;;0.70;99.90;;;;;;5039470;28;19910;-81
2022/11/25 03:05:40;;;;;;;;;;;0.70;99.90;;;;;;5039713;28;19909;-82
2022/11/25 03:08:06;;;;;;;;;;;0.70;99.90;;;;;;5038069;28;19967;-81
2022/11/25 03:10:32;;;;;;;;;;;0.70;99.90;;;;;;5038986;28;19940;-81
2022/11/25 03:12:58;;;;;;;;;;;0.70;99.90;;;;;;5037504;28;19913;-81
2022/11/25 03:15:23;;;;;;;;;;;0.70;99.90;;;;;;5039021;28;19910;-81
2022/11/25 03:17:49;;;;;;;;;;;0.60;99.90;;;;;;5020721;28;19913;-82
2022/11/25 03:20:15;;;;;;;;;;;0.60;99.90;;;;;;5036625;28;19939;-82
2022/11/25 03:22:41;;;;;;;;;;;0.60;99.90;;;;;;5037606;28;19913;-81
2022/11/25 03:25:07;;;;;;;;;;;0.60;99.90;;;;;;5049941;28;19949;-81
2022/11/25 03:27:33;;;;;;;;;;;0.60;99.90;;;;;;5036985;28;19939;-80
2022/11/25 03:29:59;;;;;;;;;;;0.60;99.90;;;;;;5031902;28;19917;-81
2022/11/25 03:32:24;;;;;;;;;;;0.60;99.90;;;;;;5037853;28;20000;-81
2022/11/25 03:34:50;;;;;;;;;;;0.60;99.90;;;;;;5037025;28;20308;-80
2022/11/25 03:37:15;;;;;;;;;;;0.60;99.90;;;;;;5037616;28;19917;-81
2022/11/25 03:39:41;;;;;;;;;;;0.50;99.90;;;;;;5038162;28;19913;-81
2022/11/25 03:42:07;;;;;;;;;;;0.50;99.90;;;;;;5036165;28;20031;-80
2022/11/25 03:44:32;;;;;;;;;;;0.50;99.90;;;;;;5029442;28;20005;-81
2022/11/25 03:46:58;;;;;;;;;;;0.40;99.90;;;;;;5000661;28;19920;-81
2022/11/25 03:49:23;;;;;;;;;;;0.50;99.90;;;;;;5032392;28;19909;-80
2022/11/25 03:51:49;;;;;;;;;;;0.50;99.90;;;;;;5035603;28;19997;-81
2022/11/25 03:54:14;;;;;;;;;;;0.50;99.90;;;;;;5017598;28;19964;-81
2022/11/25 03:56:40;;;;;;;;;;;0.60;99.90;;;;;;5036024;28;19918;-80
2022/11/25 03:59:06;;;;;;;;;;;0.60;99.90;;;;;;5036555;28;20361;-81
2022/11/25 04:01:31;;;;;;;;;;;0.70;99.90;;;;;;5026714;28;19917;-81
2022/11/25 04:03:57;;;;;;;;;;;0.70;99.90;;;;;;5028149;28;20369;-80
2022/11/25 04:06:22;;;;;;;;;;;0.70;99.90;;;;;;5037900;28;19921;-81
2022/11/25 04:08:48;;;;;;;;;;;0.80;99.90;;;;;;5035955;28;20364;-81
2022/11/25 04:11:14;;;;;;;;;;;0.80;99.90;;;;;;5037882;28;19983;-81
2022/11/25 04:13:40;;;;;;;;;;;0.80;99.90;;;;;;5036676;28;19917;-81
2022/11/25 04:16:05;;;;;;;;;;;0.80;99.90;;;;;;5020261;28;19961;-82
2022/11/25 04:18:31;;;;;;;;;;;0.80;99.90;;;;;;5035720;28;19921;-82
2022/11/25 04:20:57;;;;;;;;;;;0.80;99.90;;;;;;5034273;28;19913;-81
2022/11/25 04:23:22;;;;;;;;;;;0.80;99.90;;;;;;5034920;28;19913;-82
2022/11/25 04:25:49;;;;;;;;;;;0.80;99.90;;;;;;5034166;28;20019;-81
2022/11/25 04:28:14;;;;;;;;;;;0.80;99.90;;;;;;5034031;28;20409;-82
2022/11/25 04:30:40;;;;;;;;;;;0.90;99.90;;;;;;5034714;28;20018;-82
2022/11/25 04:33:05;;;;;;;;;;;0.90;99.90;;;;;;5034615;28;19924;-81
2022/11/25 04:35:31;;;;;;;;;;;0.90;99.90;;;;;;5018932;28;20012;-80
2022/11/25 04:37:56;;;;;;;;;;;0.90;99.90;;;;;;5034339;28;19913;-79
2022/11/25 04:40:22;;;;;;;;;;;0.90;99.90;;;;;;5033709;28;20016;-81
2022/11/25 04:42:48;;;;;;;;;;;0.90;99.90;;;;;;5033366;28;20258;-82
2022/11/25 04:45:14;;;;;;;;;;;0.90;99.90;;;;;;5035402;28;19972;-80
2022/11/25 04:47:40;;;;;;;;;;;0.90;99.90;;;;;;5035540;28;19913;-80
2022/11/25 04:50:07;;;;;;;;;;;0.90;99.90;;;;;;5037116;28;19967;-81
2022/11/25 04:52:34;;;;;;;;;;;0.90;99.90;;;;;;5035998;28;19913;-81
2022/11/25 04:55:00;;;;;;;;;;;0.90;99.90;;;;;;5035808;28;19951;-81
2022/11/25 04:57:25;;;;;;;;;;;0.80;99.90;;;;;;5036588;28;19914;-80
2022/11/25 04:59:51;;;;;;;;;;;0.80;99.90;;;;;;5037035;28;19920;-80
2022/11/25 05:02:21;;;;;;;;;;;0.80;99.90;;;;;;5035608;28;20355;-81
2022/11/25 05:04:47;;;;;;;;;;;0.70;99.90;;;;;;5031242;28;19914;-80
2022/11/25 05:07:14;;;;;;;;;;;0.70;99.90;;;;;;5034978;28;19925;-81
2022/11/25 05:09:40;;;;;;;;;;;0.70;99.90;;;;;;5038146;28;19909;-81
2022/11/25 05:12:06;;;;;;;;;;;0.70;99.90;;;;;;5039788;28;19923;-80
2022/11/25 05:14:34;;;;;;;;;;;0.60;99.90;;;;;;5041067;28;19955;-81
2022/11/25 05:17:03;;;;;;;;;;;0.60;99.90;;;;;;5039138;28;19924;-81
2022/11/25 05:19:28;;;;;;;;;;;0.70;99.90;;;;;;5042741;28;19913;-81
2022/11/25 05:21:54;;;;;;;;;;;0.70;99.90;;;;;;5025103;28;19956;-81
2022/11/25 05:24:20;;;;;;;;;;;0.70;99.90;;;;;;5041119;28;19925;-80
2022/11/25 05:26:45;;;;;;;;;;;0.70;99.90;;;;;;5039642;28;19913;-79
2022/11/25 05:29:11;;;;;;;;;;;0.70;99.90;;;;;;5031154;28;20274;-79
2022/11/25 05:31:37;;;;;;;;;;;0.70;99.90;;;;;;5035223;28;19913;-80
2022/11/25 05:34:02;;;;;;;;;;;0.70;99.90;;;;;;5037537;28;20433;-80
2022/11/25 05:36:28;;;;;;;;;;;0.70;99.90;;;;;;5035924;28;20037;-80
2022/11/25 05:38:57;;;;;;;;;;;0.70;99.90;;;;;;5036928;28;20004;-80
2022/11/25 05:41:23;;;;;;;;;;;0.70;99.90;;;;;;5038639;28;19909;-80
2022/11/25 05:43:48;;;;;;;;;;;0.70;99.90;;;;;;5037955;28;20359;-80
2022/11/25 05:46:14;;;;;;;;;;;0.70;99.90;;;;;;5019076;28;19917;-80
2022/11/25 05:48:39;;;;;;;;;;;0.70;99.90;;;;;;5037422;28;20000;-80
2022/11/25 05:51:05;;;;;;;;;;;0.70;99.90;;;;;;5038533;28;20281;-80
2022/11/25 05:53:31;;;;;;;;;;;0.70;99.90;;;;;;5039170;28;19909;-80
2022/11/25 05:56:06;;;;;;;;;;;0.70;99.90;;;;;;5038511;28;19921;-80
2022/11/25 05:58:32;;;;;;;;;;;0.70;99.90;;;;;;5037733;28;19916;-81
2022/11/25 06:00:58;;;;;;;;;;;0.70;99.90;;;;;;5039521;28;20369;-80
2022/11/25 06:03:24;;;;;;;;;;;0.60;99.90;;;;;;5037557;28;19971;-79
2022/11/25 06:05:49;;;;;;;;;;;0.60;99.90;;;;;;5039797;28;19909;-79
2022/11/25 06:08:15;;;;;;;;;;;0.60;99.90;;;;;;5039437;28;19924;-80
2022/11/25 06:10:41;;;;;;;;;;;0.60;99.90;;;;;;5037376;28;19964;-80
2022/11/25 06:13:07;;;;;;;;;;;0.60;99.90;;;;;;5038144;28;20280;-79
2022/11/25 06:15:32;;;;;;;;;;;0.60;99.90;;;;;;5038862;28;20003;-79
2022/11/25 06:17:58;;;;;;;;;;;0.60;99.90;;;;;;5035147;28;20004;-80
2022/11/25 06:20:24;;;;;;;;;;;0.60;99.90;;;;;;5035960;28;19916;-81
2022/11/25 06:22:49;;;;;;;;;;;0.60;99.90;;;;;;5039249;28;19914;-81
2022/11/25 06:25:15;;;;;;;;;;;0.60;99.90;;;;;;5020642;28;19913;-80
2022/11/25 06:27:41;;;;;;;;;;;0.60;99.90;;;;;;5021105;28;19927;-79
2022/11/25 06:30:06;;;;;;;;;;;0.60;99.90;;;;;;5040064;28;20287;-80
2022/11/25 06:32:32;;;;;;;;;;;0.60;99.90;;;;;;5039115;28;19913;-80
2022/11/25 06:34:58;;;;;;;;;;;0.60;99.90;;;;;;5038778;28;19944;-80
2022/11/25 06:37:23;;;;;;;;;;;0.60;99.90;;;;;;5039646;28;20289;-80
2022/11/25 06:39:49;;;;;;;;;;;0.60;99.90;;;;;;5041211;28;20352;-80
2022/11/25 06:42:14;;;;;;;;;;;0.60;99.90;;;;;;5037263;28;20327;-79
2022/11/25 06:44:40;;;;;;;;;;;0.60;99.90;;;;;;5036996;28;19921;-80
2022/11/25 06:47:05;;;;;;;;;;;0.60;99.90;;;;;;5020410;28;19913;-80
2022/11/25 06:49:31;;;;;;;;;;;0.50;99.90;;;;;;5035932;28;19959;-80
2022/11/25 06:51:56;;;;;;;;;;;0.50;99.90;;;;;;5037017;28;20285;-80
2022/11/25 06:54:22;;;;;;;;;;;0.50;99.90;;;;;;5021069;28;19913;-80
2022/11/25 06:56:50;;;;;;;;;;;0.50;99.90;;;;;;5020652;28;19936;-80
2022/11/25 06:59:16;;;;;;;;;;;0.50;99.90;;;;;;5020644;28;19913;-80
2022/11/25 07:01:42;;;;;;;;;;;0.50;99.90;;;;;;5037701;28;19913;-79
2022/11/25 07:04:07;;;;;;;;;;;0.50;99.90;;;;;;5037433;28;20331;-82
2022/11/25 07:06:33;;;;;;;;;;;0.50;99.90;;;;;;5040073;28;19917;-81
2022/11/25 07:08:58;;;;;;;;;;;0.40;99.90;;;;;;5038033;28;19917;-80
2022/11/25 07:11:28;;;;;;;;;;;0.40;99.90;;;;;;5038654;28;19920;-80
2022/11/25 07:13:56;;;;;;;;;;;0.40;99.90;;;;;;5040611;28;20288;-80
2022/11/25 07:16:22;;;;;;;;;;;0.40;99.90;;;;;;5039778;28;20427;-80
2022/11/25 07:18:47;;;;;;;;;;;0.40;99.90;;;;;;5039993;28;19913;-80
2022/11/25 07:21:17;;;;;;;;;;;0.40;99.90;;;;;;5037410;28;20320;-81
2022/11/25 07:23:43;;;;;;;;;;;0.40;99.90;;;;;;5039217;28;19909;-80
2022/11/25 07:26:23;;;;;;;;;;;0.40;99.90;;;;;;5037305;28;20285;-79
2022/11/25 07:28:49;;;;;;;;;;;0.40;99.90;;;;;;5038200;28;19920;-80
2022/11/25 07:31:17;;;;;;;;;;;0.30;99.90;;;;;;5052646;28;19909;-80
2022/11/25 07:33:43;;;;;;;;;;;0.30;99.90;;;;;;5035932;28;19949;-80
2022/11/25 07:36:10;;;;;;;;;;;0.30;99.90;;;;;;5020346;28;19914;-80
2022/11/25 07:38:36;;;;;;;;;;;0.30;99.90;;;;;;5038095;28;20404;-80
2022/11/25 07:41:09;;;;;;;;;;;0.40;99.90;;;;;;5038682;28;19913;-80
2022/11/25 07:43:34;;;;;;;;;;;0.30;99.90;;;;;;5036473;28;19913;-80
2022/11/25 07:46:11;;;;;;;;;;;0.40;99.90;;;;;;5037390;28;19917;-80
2022/11/25 07:48:36;;;;;;;;;;;0.40;99.90;;;;;;5038906;28;19913;-80
2022/11/25 07:51:02;;;;;;;;;;;0.40;99.90;;;;;;5038056;28;19909;-80
2022/11/25 07:53:27;;;;;;;;;;;0.40;99.90;;;;;;5039260;28;19913;-80
2022/11/25 07:55:53;;;;;;;;;;;0.30;99.90;;;;;;5021621;28;19917;-80
2022/11/25 07:58:18;;;;;;;;;;;0.40;99.90;;;;;;5036202;28;19948;-80
2022/11/25 08:00:44;;;;;;;;;;;0.40;99.90;;;;;;5019786;28;19913;-80
2022/11/25 08:03:09;;;;;;;;;;;0.40;99.90;;;;;;5037630;28;19913;-80
2022/11/25 08:05:35;;;;;;;;;;;0.50;99.90;;;;;;5038029;28;19962;-80
2022/11/25 08:08:00;;;;;;;;;;;0.50;99.90;;;;;;5036369;28;20059;-81
2022/11/25 08:10:26;;;;;;;;;;;0.50;99.90;;;;;;5019689;28;19913;-80
2022/11/25 08:12:52;;;;;;;;;;;0.50;99.90;;;;;;5035788;28;19914;-79
2022/11/25 08:15:18;;;;;;;;;;;0.50;99.90;;;;;;5036880;28;19913;-80
2022/11/25 08:17:43;;;;;;;;;;;0.60;99.90;;;;;;5020350;28;19913;-80
2022/11/25 08:20:09;;;;;;;;;;;0.60;99.90;;;;;;5037271;28;20004;-81
2022/11/25 08:22:35;;;;;;;;;;;0.60;99.90;;;;;;5021228;28;20381;-80
2022/11/25 08:25:00;;;;;;;;;;;0.60;99.90;;;;;;5020883;28;20365;-80
2022/11/25 08:27:26;;;;;;;;;;;0.60;99.90;;;;;;5019238;28;19957;-80
2022/11/25 08:29:51;;;;;;;;;;;0.60;99.90;;;;;;5035106;28;19920;-80
2022/11/25 08:32:17;;;;;;;;;;;0.70;99.90;;;;;;5021297;28;19920;-81
2022/11/25 08:34:42;;;;;;;;;;;0.70;99.90;;;;;;5038302;28;19944;-81
2022/11/25 08:37:08;;;;;;;;;;;0.70;99.90;;;;;;5021291;28;19913;-80
2022/11/25 08:39:33;;;;;;;;;;;0.70;99.90;;;;;;5036410;28;20393;-81
2022/11/25 08:42:01;;;;;;;;;;;0.80;99.90;;;;;;5037036;28;19963;-79
2022/11/25 08:44:28;;;;;;;;;;;0.80;99.90;;;;;;5034063;28;19980;-80
2022/11/25 08:46:54;;;;;;;;;;;0.80;99.90;;;;;;5037190;28;19917;-80
2022/11/25 08:49:20;;;;;;;;;;;0.80;99.90;;;;;;5037682;28;20392;-81
2022/11/25 08:51:47;;;;;;;;;;;0.80;99.90;;;;;;5036789;28;20405;-79
2022/11/25 08:54:13;;;;;;;;;;;0.80;99.90;;;;;;5035798;28;19909;-80
2022/11/25 08:56:38;;;;;;;;;;;0.80;99.90;;;;;;5038872;28;20358;-80
2022/11/25 08:59:04;;;;;;;;;;;0.80;99.90;;;;;;5036906;28;19977;-80
2022/11/25 09:01:30;;;;;;;;;;;0.80;99.90;;;;;;5036546;28;19913;-79
2022/11/25 09:03:56;;;;;;;;;;;0.90;99.90;;;;;;5036767;28;19910;-80
2022/11/25 09:06:23;;;;;;;;;;;1.00;99.90;;;;;;5038054;28;20289;-79
2022/11/25 09:08:48;;;;;;;;;;;1.00;99.90;;;;;;5036813;28;20392;-80
2022/11/25 09:11:14;;;;;;;;;;;1.10;99.90;;;;;;5035817;28;19914;-80
2022/11/25 09:13:40;;;;;;;;;;;1.10;99.90;;;;;;5036663;28;19948;-80
2022/11/25 09:16:06;;;;;;;;;;;1.20;99.90;;;;;;5038300;28;19945;-80
2022/11/25 09:18:32;;;;;;;;;;;1.20;99.90;;;;;;5022476;28;19913;-80
2022/11/25 09:20:57;;;;;;;;;;;1.30;99.90;;;;;;5038610;28;19956;-80
2022/11/25 09:23:24;;;;;;;;;;;1.30;99.90;;;;;;5039532;28;20409;-79
2022/11/25 09:25:58;;;;;;;;;;;1.30;99.90;;;;;;5038093;28;19909;-81
2022/11/25 09:28:25;;;;;;;;;;;1.40;99.90;;;;;;5036297;28;19940;-79
2022/11/25 09:30:50;;;;;;;;;;;1.50;99.90;;;;;;5038470;28;19910;-80
2022/11/25 09:33:16;;;;;;;;;;;1.60;99.90;;;;;;5036007;28;19920;-80
2022/11/25 09:35:42;;;;;;;;;;;1.70;99.90;;;;;;5037170;28;20488;-80
2022/11/25 09:38:07;;;;;;;;;;;1.80;99.90;;;;;;5035868;28;19968;-80
2022/11/25 09:40:33;;;;;;;;;;;1.90;99.90;;;;;;5036984;28;19917;-80
2022/11/25 09:49:18;;;;;;;;;;;2.30;99.90;;;;;;5038332;28;19967;-80
2022/11/25 09:51:55;;;;;;;;;;;2.40;99.90;;;;;;5038138;28;19999;-80
2022/11/25 09:54:22;;;;;;;;;;;2.40;99.90;;;;;;5019701;28;19956;-79
2022/11/25 09:56:52;;;;;;;;;;;2.50;99.90;;;;;;5025598;28;19920;-80
2022/11/25 09:59:50;;;;;;;;;;;2.50;99.90;;;;;;5040475;28;19909;-80
2022/11/25 10:02:20;;;;;;;;;;;2.50;99.90;;;;;;5006011;28;19916;-79
2022/11/25 10:04:47;;;;;;;;;;;2.50;99.90;;;;;;5040978;28;19909;-80
2022/11/25 10:07:32;;;;;;;;;;;2.50;99.90;;;;;;5042250;28;19909;-80
2022/11/25 10:10:00;;;;;;;;;;;2.60;99.90;;;;;;5039514;28;19910;-80
2022/11/25 10:12:31;;;;;;;;;;;2.50;99.90;;;;;;5042819;28;20068;-79
2022/11/25 10:15:01;;;;;;;;;;;2.60;99.90;;;;;;5042920;28;19917;-81
2022/11/25 10:17:48;;;;;;;;;;;2.60;99.90;;;;;;5042509;28;19909;-80
2022/11/25 10:20:18;;;;;;;;;;;2.60;99.90;;;;;;5042188;28;20392;-80
2022/11/25 10:22:45;;;;;;;;;;;2.60;99.90;;;;;;5040701;28;20202;-80
2022/11/25 10:25:17;;;;;;;;;;;2.60;99.90;;;;;;5051321;28;19915;-80
2022/11/25 10:27:55;;;;;;;;;;;2.70;99.90;;;;;;5038936;28;19913;-80
2022/11/25 10:30:23;;;;;;;;;;;2.70;99.90;;;;;;5038432;28;19936;-80
2022/11/25 10:32:53;;;;;;;;;;;2.80;99.90;;;;;;5041061;28;20347;-80
2022/11/25 10:35:22;;;;;;;;;;;2.90;99.90;;;;;;5039318;28;19963;-80
2022/11/25 10:37:53;;;;;;;;;;;2.90;99.90;;;;;;5040218;28;19963;-80
2022/11/25 10:40:19;;;;;;;;;;;3.00;99.90;;;;;;5040466;28;19909;-80
2022/11/25 10:42:45;;;;;;;;;;;3.00;99.90;;;;;;5038829;28;20060;-81
2022/11/25 10:45:11;;;;;;;;;;;3.10;99.90;;;;;;5040000;28;20043;-79
2022/11/25 10:47:57;;;;;;;;;;;3.20;99.90;;;;;;5039882;28;19917;-80
2022/11/25 10:50:28;;;;;;;;;;;3.20;99.90;;;;;;5036005;28;19931;-80
2022/11/25 10:52:56;;;;;;;;;;;3.20;99.90;;;;;;5037569;28;20366;-81
2022/11/25 10:55:24;;;;;;;;;;;3.20;99.90;;;;;;5030956;28;20389;-80
2022/11/25 10:57:50;;;;;;;;;;;3.20;99.90;;;;;;5039370;28;19996;-81
2022/11/25 11:00:28;;;;;;;;;;;3.30;99.90;;;;;;5040011;28;20381;-81
2022/11/25 11:02:54;;;;;;;;;;;3.30;99.90;;;;;;5039148;28;19913;-79
2022/11/25 11:05:22;;;;;;;;;;;3.30;99.90;;;;;;5038838;28;19920;-81
2022/11/25 11:08:05;;;;;;;;;;;3.30;99.90;;;;;;5038892;28;20277;-81
2022/11/25 11:10:31;;;;;;;;;;;3.30;99.90;;;;;;5038549;28;19917;-81
2022/11/25 11:13:00;;;;;;;;;;;3.40;99.90;;;;;;5038704;28;19914;-80
2022/11/25 11:15:28;;;;;;;;;;;3.40;99.90;;;;;;5036194;28;19909;-81
2022/11/25 11:17:54;;;;;;;;;;;3.50;99.90;;;;;;5037881;28;20022;-81
2022/11/25 11:20:20;;;;;;;;;;;3.40;99.90;;;;;;5039535;28;19909;-81
2022/11/25 11:22:48;;;;;;;;;;;3.50;99.90;;;;;;5036626;28;19915;-81
2022/11/25 11:25:19;;;;;;;;;;;3.50;99.90;;;;;;5037554;28;20284;-81
2022/11/25 11:27:46;;;;;;;;;;;3.50;99.90;;;;;;5036571;28;19968;-80
2022/11/25 11:30:15;;;;;;;;;;;3.60;99.90;;;;;;5038960;28;19910;-80
2022/11/25 11:32:43;;;;;;;;;;;3.60;99.90;;;;;;5037632;28;19909;-81
2022/11/25 11:35:17;;;;;;;;;;;3.60;99.90;;;;;;5039208;28;19932;-80
2022/11/25 11:37:44;;;;;;;;;;;3.60;99.90;;;;;;5037881;28;19916;-81
2022/11/25 11:40:16;;;;;;;;;;;3.60;99.90;;;;;;5037587;28;19909;-82
2022/11/25 11:42:48;;;;;;;;;;;3.70;99.90;;;;;;5038489;28;19917;-82
2022/11/25 11:45:23;;;;;;;;;;;3.70;99.90;;;;;;5035406;28;19932;-83
2022/11/25 11:47:48;;;;;;;;;;;3.70;99.90;;;;;;5036680;28;20271;-83
2022/11/25 11:50:20;;;;;;;;;;;3.70;99.90;;;;;;5038970;28;19913;-82
2022/11/25 11:52:51;;;;;;;;;;;3.70;99.90;;;;;;5038771;28;20327;-81
2022/11/25 11:55:26;;;;;;;;;;;3.70;99.90;;;;;;5038191;28;19909;-81
2022/11/25 11:58:07;;;;;;;;;;;3.70;99.90;;;;;;5036820;28;19916;-81
2022/11/25 12:00:37;;;;;;;;;;;3.80;99.90;;;;;;5030061;28;19909;-80
2022/11/25 12:03:15;;;;;;;;;;;3.80;99.90;;;;;;5036132;28;19909;-80
2022/11/25 12:05:41;;;;;;;;;;;3.90;99.90;;;;;;5051593;28;19929;-81
2022/11/25 12:08:19;;;;;;;;;;;3.90;99.90;;;;;;5036727;28;19913;-81
2022/11/25 12:10:47;;;;;;;;;;;4.00;99.90;;;;;;5038289;28;19916;-80
2022/11/25 12:13:16;;;;;;;;;;;4.00;99.90;;;;;;5036664;28;19909;-81
2022/11/25 12:15:52;;;;;;;;;;;4.00;99.90;;;;;;5037790;28;19909;-81
2022/11/25 12:18:36;;;;;;;;;;;4.10;99.90;;;;;;5037600;28;19995;-81
2022/11/25 12:21:04;;;;;;;;;;;4.10;99.90;;;;;;5036638;28;19909;-81
2022/11/25 12:23:39;;;;;;;;;;;4.20;99.90;;;;;;5038283;28;19910;-80
2022/11/25 12:26:07;;;;;;;;;;;4.20;99.90;;;;;;5036775;28;20365;-81
2022/11/25 12:28:35;;;;;;;;;;;4.30;99.90;;;;;;5036262;28;19986;-81
2022/11/25 12:31:01;;;;;;;;;;;4.40;99.90;;;;;;5034057;28;19910;-79
2022/11/25 12:33:39;;;;;;;;;;;4.40;99.90;;;;;;5036459;28;19916;-81
2022/11/25 12:36:09;;;;;;;;;;;4.50;99.90;;;;;;5036927;28;20383;-81
2022/11/25 12:38:53;;;;;;;;;;;4.60;99.90;;;;;;5037920;28;19917;-82
2022/11/25 12:41:24;;;;;;;;;;;4.60;99.90;;;;;;5038231;28;19909;-82
2022/11/25 12:43:52;;;;;;;;;;;4.70;99.90;;;;;;5052747;28;19917;-81
2022/11/25 12:46:35;;;;;;;;;;;4.80;99.90;;;;;;5037143;28;20338;-81
2022/11/25 12:49:02;;;;;;;;;;;4.80;99.90;;;;;;5038059;28;19956;-81
2022/11/25 12:51:33;;;;;;;;;;;4.90;99.90;;;;;;5037500;28;19913;-82
2022/11/25 12:54:11;;;;;;;;;;;5.00;99.90;;;;;;5053743;28;19909;-81
2022/11/25 12:56:51;;;;;;;;;;;5.00;99.90;;;;;;5038960;28;19909;-82
2022/11/25 12:59:35;;;;;;;;;;;5.00;99.90;;;;;;5037184;28;20395;-81
2022/11/25 13:02:13;;;;;;;;;;;5.00;99.90;;;;;;5037259;28;19916;-81
2022/11/25 13:05:04;;;;;;;;;;;5.10;99.90;;;;;;5035876;28;19909;-81
2022/11/25 13:07:44;;;;;;;;;;;5.10;99.90;;;;;;5037273;28;19913;-82
2022/11/25 13:10:21;;;;;;;;;;;5.10;99.90;;;;;;5038131;28;19916;-82
2022/11/25 13:12:49;;;;;;;;;;;5.20;99.90;;;;;;5037307;28;19910;-82
2022/11/25 13:15:18;;;;;;;;;;;5.20;99.90;;;;;;5036650;28;20254;-82
2022/11/25 13:17:44;;;;;;;;;;;5.20;99.90;;;;;;5037713;28;19984;-82
2022/11/25 13:20:30;;;;;;;;;;;5.20;99.90;;;;;;5038437;28;19909;-82
2022/11/25 13:23:09;;;;;;;;;;;5.20;99.90;;;;;;5036352;28;19909;-82
2022/11/25 13:25:36;;;;;;;;;;;5.20;99.90;;;;;;5037893;28;20277;-82
2022/11/25 13:28:03;;;;;;;;;;;5.10;99.90;;;;;;5038162;28;19919;-82
2022/11/25 13:30:31;;;;;;;;;;;5.10;99.90;;;;;;5040153;28;19913;-80
2022/11/25 13:33:17;;;;;;;;;;;5.10;99.90;;;;;;5041415;28;19909;-82
2022/11/25 13:35:42;;;;;;;;;;;5.00;99.90;;;;;;5041888;28;19958;-82
2022/11/25 13:38:26;;;;;;;;;;;4.90;99.90;;;;;;5040037;28;19941;-81
2022/11/25 13:40:59;;;;;;;;;;;4.90;99.90;;;;;;5041181;28;19909;-81
2022/11/25 13:43:25;;;;;;;;;;;4.90;99.90;;;;;;5040442;28;19909;-81
2022/11/25 13:45:51;;;;;;;;;;;4.80;99.90;;;;;;5039287;28;20397;-81
2022/11/25 13:48:16;;;;;;;;;;;4.80;99.90;;;;;;5039314;28;20011;-82
2022/11/25 13:50:42;;;;;;;;;;;4.70;99.90;;;;;;5039695;28;20015;-81
2022/11/25 13:53:23;;;;;;;;;;;4.70;99.90;;;;;;5039153;28;19910;-81
2022/11/25 13:55:49;;;;;;;;;;;4.70;99.90;;;;;;5040878;28;19909;-82
2022/11/25 13:58:15;;;;;;;;;;;4.70;99.90;;;;;;5039643;28;19913;-82
2022/11/25 14:01:01;;;;;;;;;;;4.60;99.90;;;;;;5037807;28;19956;-81
2022/11/25 14:03:42;;;;;;;;;;;4.60;99.90;;;;;;5008368;28;19909;-82
2022/11/25 14:06:07;;;;;;;;;;;4.50;99.90;;;;;;5019173;28;19910;-82
2022/11/25 14:08:51;;;;;;;;;;;4.50;99.90;;;;;;5030073;28;19924;-82
2022/11/25 14:11:36;;;;;;;;;;;4.50;99.90;;;;;;5036742;28;20278;-82
2022/11/25 14:14:04;;;;;;;;;;;4.40;99.90;;;;;;5036511;28;20262;-81
2022/11/25 14:17:02;;;;;;;;;;;4.40;99.90;;;;;;5037676;28;19909;-82
2022/11/25 14:19:40;;;;;;;;;;;4.30;99.90;;;;;;4992128;28;20004;-82
2022/11/25 14:22:11;;;;;;;;;;;4.30;99.90;;;;;;5052400;28;19913;-81
2022/11/25 14:24:39;;;;;;;;;;;4.30;99.90;;;;;;5038122;28;20418;-82
2022/11/25 14:27:12;;;;;;;;;;;4.30;99.90;;;;;;5050397;28;20008;-82
2022/11/25 14:29:40;;;;;;;;;;;4.20;99.90;;;;;;5039284;28;20000;-82
2022/11/25 14:32:09;;;;;;;;;;;4.10;99.90;;;;;;5037005;28;19909;-81
2022/11/25 14:34:43;;;;;;;;;;;4.10;99.90;;;;;;5041004;28;19913;-81
2022/11/25 14:37:13;;;;;;;;;;;4.00;99.90;;;;;;5039850;28;19913;-80
2022/11/25 14:39:44;;;;;;;;;;;3.90;99.90;;;;;;5038448;28;19910;-81
2022/11/25 14:42:12;;;;;;;;;;;3.90;99.90;;;;;;5037917;28;19910;-81
2022/11/25 14:44:51;;;;;;;;;;;3.80;99.90;;;;;;5033360;28;20285;-81
2022/11/25 14:47:26;;;;;;;;;;;3.80;99.90;;;;;;5037486;28;19917;-81